• Join FlightAware (Why Join?)
  • Login
  • US Flag 
12:53PM EST


 

Airport Tracker/Info


-or-


 

Live Flight TrackerFlight Track Log ✈ SWA1841 ✈ 17-Apr-2013 ✈ KPHX - KHOU

Flight Track Log - Related Links

Times and Time Zones

All times are in EDT time to prevent confusion due to time zone crossing. See the SWA1841 flight status page for this flight to view local times or setup timezone preferences in your user account.

Time Position Orientation Groundspeed Altitude Reporting Facility
EDT Latitude Longitude Course Direction KTS MPH feet Rate Location/Type
05:27PM 33.4333 -112.0167 249° West 181 208 1,600  Level Phoenix TRACON
05:28PM 33.4206 -112.0572 249° West 163 188 3,000 2,100 Climbing Albuquerque Center
05:29PM 33.3986 -112.1219 248° West 209 241 5,400 3,000 Climbing Albuquerque Center
05:30PM 33.3567 -112.1778 228° Southwest 245 282 9,300 3,180 Climbing Albuquerque Center
05:31PM 33.2847 -112.1411 157° South 290 334 12,000 2,580 Climbing Albuquerque Center
05:32PM 33.2031 -112.0931 154° Southeast 324 373 14,700 2,700 Climbing Albuquerque Center
05:33PM 33.1119 -112.0397 154° Southeast 362 417 17,600 2,580 Climbing Albuquerque Center
05:34PM 32.9931 -111.9700 154° Southeast 402 463 20,100 2,400 Climbing Albuquerque Center
05:35PM 32.8914 -111.9014 150° Southeast 420 483 22,600 2,340 Climbing Albuquerque Center
05:36PM 32.8231 -111.7692 122° Southeast 470 541 25,000 2,040 Climbing Albuquerque Center
05:37PM 32.7567 -111.6306 120° Southeast 484 557 26,900 1,680 Climbing Albuquerque Center
05:38PM 32.6892 -111.4867 119° Southeast 498 573 28,500 1,500 Climbing Albuquerque Center
05:40PM 32.6186 -111.3383 119° Southeast 513 590 30,000 1,440 Climbing Albuquerque Center
05:41PM 32.5314 -111.1542 119° Southeast 531 611 31,500 1,200 Climbing Albuquerque Center
05:42PM 32.4564 -110.9986 120° Southeast 542 624 32,600 960 Climbing Albuquerque Center
05:43PM 32.3769 -110.8369 120° Southeast 562 647 33,500 1,140 Climbing Albuquerque Center
05:44PM 32.2978 -110.6719 120° Southeast 574 661 35,000 1,620 Climbing Albuquerque Center
05:45PM 32.2378 -110.4972 112° Southeast 580 667 36,900 960 Climbing Albuquerque Center
05:46PM 32.2181 -110.2897 96° East 585 673 37,000  Climbing Albuquerque Center
05:47PM 32.1994 -110.1036 97° East 580 667 37,000  Level Albuquerque Center
05:48PM 32.1822 -109.9153 96° East 583 671 37,000  Level Albuquerque Center
05:49PM 32.1633 -109.6897 96° East 584 672 37,000  Level Albuquerque Center
05:50PM 32.1467 -109.5044 96° East 579 666 37,000  Level Albuquerque Center
05:51PM 32.1292 -109.3189 96° East 576 663 37,000  Level Albuquerque Center
05:52PM 32.1125 -109.1347 96° East 575 662 37,000  Level Albuquerque Center
05:53PM 32.0967 -108.9475 96° East 579 666 37,000  Level Albuquerque Center
05:54PM 32.0747 -108.7256 97° East 578 665 37,000  Level Albuquerque Center
05:55PM 32.0564 -108.5425 97° East 572 658 37,000  Level Albuquerque Center
05:56PM 32.0394 -108.3592 96° East 570 656 37,000  Level Albuquerque Center
05:57PM 32.0208 -108.1769 97° East 569 655 37,000  Level Albuquerque Center
05:58PM 32.0003 -107.9700 97° East 569 655 37,000  Level Albuquerque Center
05:59PM 31.9817 -107.7875 97° East 566 651 37,000  Level Albuquerque Center
06:00PM 31.9631 -107.6058 97° East 565 650 37,000  Level Albuquerque Center
06:01PM 31.9442 -107.4261 97° East 562 647 37,000  Level Albuquerque Center
06:02PM 31.9219 -107.2106 97° East 559 643 37,000  Level Albuquerque Center
06:03PM 31.9017 -107.0331 98° East 555 639 37,000  Level Albuquerque Center
06:04PM 31.8822 -106.8519 97° East 561 646 37,000  Level Albuquerque Center
06:05PM 31.8614 -106.6692 98° East 569 655 37,000  Level Albuquerque Center
06:06PM 31.8397 -106.4889 98° East 574 661 37,000  Level Albuquerque Center
06:07PM 31.8200 -106.3014 97° East 579 666 37,000  Level Albuquerque Center
06:08PM 31.7919 -106.0811 98° East 568 654 37,000  Level Albuquerque Center
06:09PM 31.7694 -105.8975 98° East 569 655 37,000  Level Albuquerque Center
06:10PM 31.7464 -105.7128 98° East 570 656 37,000  Level Albuquerque Center
06:11PM 31.7242 -105.5294 98° East 566 651 37,000  Level Albuquerque Center
06:12PM 31.7022 -105.3458 98° East 566 651 37,000  Level Albuquerque Center
06:14PM 31.6786 -105.1625 99° East 566 651 37,000  Level Albuquerque Center
06:15PM 31.6569 -104.9761 98° East 571 657 37,000  Level Albuquerque Center
06:16PM 31.6331 -104.7897 99° East 569 655 37,000 -60 Level Albuquerque Center
06:17PM 31.6042 -104.5689 99° East 572 658 36,900 -60 Descending Albuquerque Center
06:18PM 31.5789 -104.3825 99° East 574 661 36,900  Level Albuquerque Center
06:19PM 31.5542 -104.2000 99° East 572 658 37,000  Climbing Albuquerque Center
06:20PM 31.5306 -104.0203 99° East 566 651 36,900 -60 Descending Albuquerque Center
06:21PM 31.5067 -103.8392 99° East 563 648 36,900  Level Albuquerque Center
06:22PM 31.4822 -103.6622 99° East 559 643 37,000  Climbing Albuquerque Center
06:23PM 31.4522 -103.4453 99° East 562 647 37,000  Level Albuquerque Center
06:24PM 31.4308 -103.2664 98° East 560 644 37,000  Level Albuquerque Center
06:25PM 31.4086 -103.0842 98° East 564 649 37,000  Level Albuquerque Center
06:26PM 31.3856 -102.9047 99° East 561 646 37,000  Level Albuquerque Center
06:27PM 31.3622 -102.7244 99° East 561 646 37,000  Level Albuquerque Center
06:28PM 31.3392 -102.5436 98° East 562 647 37,000  Level Albuquerque Center
06:29PM 31.3108 -102.3300 99° East 572 658 37,000  Level Albuquerque Center
06:30PM 31.2881 -102.1525 98° East 562 647 37,000  Level Albuquerque Center
06:31PM 31.2644 -101.9742 99° East 559 643 37,000  Level Albuquerque Center
06:32PM 31.2367 -101.7675 99° East 561 646 37,000  Level Albuquerque Center
06:33PM 31.2119 -101.5892 99° East 557 641 37,000  Level Houston Center
06:34PM 31.1883 -101.4122 99° East 555 639 37,000  Level Houston Center
06:35PM 31.1597 -101.2058 99° East 555 639 37,000  Level Houston Center
06:36PM 31.1347 -101.0283 99° East 554 638 37,000 -60 Level Houston Center
06:37PM 31.1100 -100.8522 99° East 550 633 36,900  Descending Houston Center
06:39PM 31.0817 -100.6726 100° East  Level FlightAware Approximate
06:39PM 31.0592 -100.5036 100° East 545 627 37,000  Level Houston Center
06:40PM 31.0342 -100.3283 99° East 547 629 37,000  Level Houston Center
06:41PM 31.0078 -100.1558 100° East 542 624 37,000  Level Houston Center
06:43PM 30.9775 -99.9472 100° East 542 624 37,000  Level Houston Center
06:44PM 30.9514 -99.7736 100° East 542 624 37,000  Level Houston Center
06:45PM 30.9242 -99.6000 100° East 543 625 37,000  Level Houston Center
06:46PM 30.8967 -99.4256 100° East 546 628 37,000  Level Houston Center
06:47PM 30.8689 -99.2514 100° East 547 629 37,000  Level Houston Center
06:48PM 30.8400 -99.0700 100° East 544 626 37,000  Level Houston Center
06:49PM 30.8125 -98.8953 100° East 543 625 37,000  Level Houston Center
06:50PM 30.7856 -98.6897 99° East 545 627 37,000  Level Houston Center
06:51PM 30.7697 -98.5119 96° East 547 629 37,000  Level Houston Center
06:52PM 30.7528 -98.3369 96° East 543 625 37,000  Level Houston Center
06:53PM 30.7367 -98.1608 96° East 543 625 37,000  Level Houston Center
06:54PM 30.7197 -97.9872 96° East 541 623 37,000  Level Houston Center
06:55PM 30.7022 -97.8139 97° East 538 619 37,000  Level Houston Center
06:56PM 30.6817 -97.6133 97° East 537 618 37,000 -540 Level Houston Center
06:57PM 30.6639 -97.4414 97° East 536 617 36,000 -1,860 Descending Houston Center
06:58PM 30.6467 -97.2714 97° East 534 615 33,200 -2,880 Descending Houston Center
06:59PM 30.6303 -97.1014 96° East 532 612 30,100 -2,940 Descending Houston Center
07:00PM 30.6131 -96.9358 97° East 519 597 27,100 -2,940 Descending Houston Center
07:01PM 30.5931 -96.7481 97° East 503 579 24,100 -2,700 Descending Houston Center
07:02PM 30.5453 -96.6128 112° Southeast 466 536 21,600 -2,400 Descending Houston Center
07:03PM 30.4631 -96.5164 135° Southeast 422 486 19,200 -2,340 Descending Houston Center
07:03PM 30.4414 -96.4914 135° Southeast 390 449 18,600 -2,400 Descending Houston Center
07:05PM 30.3622 -96.3961 134° Southeast 359 413 15,900 -2,220 Descending Houston Center
07:05PM 30.3217 -96.3442 132° Southeast 364 419 14,700 -2,280 Descending Houston Center
07:06PM 30.2828 -96.2986 135° Southeast 360 414 13,400 -2,280 Descending Houston Center
07:06PM 30.2528 -96.2606 132° Southeast 358 412 12,400 -2,160 Descending Houston Center
07:07PM 30.2039 -96.2108 139° Southeast 350 403 11,000 -1,380 Descending Houston Center
07:07PM 30.1789 -96.1900 144° Southeast 341 392 11,000  Level Houston Center
07:08PM 30.1333 -96.1681 157° South 314 361 11,000  Level Houston Center
07:08PM 30.0978 -96.1489 155° Southeast 318 366 11,000  Level Houston Center
07:09PM 30.0411 -96.1206 157° South 316 364 11,000  Level Houston Center
07:09PM 30.0014 -96.0967 152° Southeast 318 366 11,000  Level Houston Center
07:10PM 29.9794 -96.0864 158° South 317 365 11,000 -480 Level Houston Center
07:10PM 29.9211 -96.0539 154° Southeast 317 365 10,500 -780 Descending Houston Center
07:11PM 29.8936 -96.0408 158° South 313 360 10,200 -540 Descending Houston Center
07:12PM 29.8436 -96.0131 154° Southeast 311 358 10,000 -420 Descending Houston Center
07:12PM 29.8225 -95.9958 145° Southeast 279 321 9,800 -1,080 Descending Houston Center
07:13PM 29.7956 -95.9486 123° Southeast 282 325 8,900 -1,380 Descending Houston Center
07:13PM 29.7844 -95.9186 113° Southeast 285 328 8,400 -1,260 Descending Houston Center
07:14PM 29.7600 -95.8700 120° Southeast 274 315 7,600 -1,260 Descending Houston Center
07:15PM 29.7261 -95.7958 118° Southeast 265 305 6,200 -1,200 Descending Houston Center
07:15PM 29.7092 -95.7564 116° Southeast 260 299 6,000 -240 Descending Houston Center
07:16PM 29.6867 -95.7103 119° Southeast 251 289 6,000 -120 Level Houston Center
07:16PM 29.6778 -95.6881 115° Southeast 240 276 5,900 -780 Descending Houston Center
07:17PM 29.6847 -95.6372 81° East 253 291 5,200 -1,140 Descending Houston Center
07:17PM 29.6944 -95.6139 64° Northeast 252 290 4,800 -1,680 Descending Houston Center
07:18PM 29.7142 -95.5658 65° Northeast 246 283 3,500 -1,800 Descending Houston Center
07:18PM 29.7231 -95.5358 71° East 244 281 3,000 -540 Descending Houston Center
07:19PM 29.7392 -95.4964 65° Northeast 240 276 3,000 -300 Level Houston Center
07:19PM 29.7406 -95.4736 86° East 185 213 2,700 -840 Descending Houston Center
07:20PM 29.7442 -95.4203 86° East 174 200 2,000 -420 Descending Houston Center
07:21PM 29.7344 -95.3878 109° East 178 205 2,000 -240 Level Houston Center
07:22PM 29.7039 -95.3478 131° Southeast 154 177 1,600 -540 Descending Houston Center
07:23PM 29.6800 -95.3206 135° Southeast 135 155 900 -720 Descending Houston Center
07:24PM 29.6553 -95.2917 135° Southeast 129 148 200 -420 Descending Houston Center
07:25PM 29.6303 -95.2631 135° Southeast 128 147 100 -120 Descending Houston Center
07:27PM 29.6333 -95.2667 319° Northwest  Level FlightAware Approximate